sensor_id;sensor_type;location;lat;lon;timestamp;temperature;humidity
25010;DHT22;13026;49.486;10.926;2022-07-23T00:00:10;22.80;88.50
25010;DHT22;13026;49.486;10.926;2022-07-23T00:02:36;22.70;89.10
25010;DHT22;13026;49.486;10.926;2022-07-23T00:05:02;22.70;89.70
25010;DHT22;13026;49.486;10.926;2022-07-23T00:07:28;22.70;90.00
25010;DHT22;13026;49.486;10.926;2022-07-23T00:09:54;22.60;90.00
25010;DHT22;13026;49.486;10.926;2022-07-23T00:12:19;22.60;90.10
25010;DHT22;13026;49.486;10.926;2022-07-23T00:14:45;22.50;90.30
25010;DHT22;13026;49.486;10.926;2022-07-23T00:17:11;22.50;90.40
25010;DHT22;13026;49.486;10.926;2022-07-23T00:19:36;22.50;90.70
25010;DHT22;13026;49.486;10.926;2022-07-23T00:22:02;22.50;90.90
25010;DHT22;13026;49.486;10.926;2022-07-23T00:24:28;22.50;91.10
25010;DHT22;13026;49.486;10.926;2022-07-23T00:26:54;22.50;91.30
25010;DHT22;13026;49.486;10.926;2022-07-23T00:29:19;22.40;91.30
25010;DHT22;13026;49.486;10.926;2022-07-23T00:31:45;22.40;91.30
25010;DHT22;13026;49.486;10.926;2022-07-23T00:34:10;22.40;91.50
25010;DHT22;13026;49.486;10.926;2022-07-23T00:36:36;22.30;91.70
25010;DHT22;13026;49.486;10.926;2022-07-23T00:39:02;22.30;91.80
25010;DHT22;13026;49.486;10.926;2022-07-23T00:41:27;22.30;91.90
25010;DHT22;13026;49.486;10.926;2022-07-23T00:43:53;22.30;92.00
25010;DHT22;13026;49.486;10.926;2022-07-23T00:46:20;22.20;92.00
25010;DHT22;13026;49.486;10.926;2022-07-23T00:48:45;22.20;92.30
25010;DHT22;13026;49.486;10.926;2022-07-23T00:51:11;22.10;92.40
25010;DHT22;13026;49.486;10.926;2022-07-23T00:53:36;22.20;92.90
25010;DHT22;13026;49.486;10.926;2022-07-23T00:56:02;22.20;92.80
25010;DHT22;13026;49.486;10.926;2022-07-23T00:58:28;22.30;92.80
25010;DHT22;13026;49.486;10.926;2022-07-23T01:00:53;22.30;93.10
25010;DHT22;13026;49.486;10.926;2022-07-23T01:03:19;22.20;92.90
25010;DHT22;13026;49.486;10.926;2022-07-23T01:05:45;22.30;92.90
25010;DHT22;13026;49.486;10.926;2022-07-23T01:08:11;22.30;92.80
25010;DHT22;13026;49.486;10.926;2022-07-23T01:10:36;22.30;92.90
25010;DHT22;13026;49.486;10.926;2022-07-23T01:13:05;22.30;93.00
25010;DHT22;13026;49.486;10.926;2022-07-23T01:15:33;22.20;92.80
25010;DHT22;13026;49.486;10.926;2022-07-23T01:17:59;22.20;93.00
25010;DHT22;13026;49.486;10.926;2022-07-23T01:20:26;22.20;93.20
25010;DHT22;13026;49.486;10.926;2022-07-23T01:22:53;22.10;93.80
25010;DHT22;13026;49.486;10.926;2022-07-23T01:25:19;22.10;93.60
25010;DHT22;13026;49.486;10.926;2022-07-23T01:27:53;22.10;93.80
25010;DHT22;13026;49.486;10.926;2022-07-23T01:30:19;22.00;93.90
25010;DHT22;13026;49.486;10.926;2022-07-23T01:32:46;22.10;94.30
25010;DHT22;13026;49.486;10.926;2022-07-23T01:35:12;22.10;94.70
25010;DHT22;13026;49.486;10.926;2022-07-23T01:37:38;22.00;94.50
25010;DHT22;13026;49.486;10.926;2022-07-23T01:40:05;22.00;94.70
25010;DHT22;13026;49.486;10.926;2022-07-23T01:42:31;22.00;94.80
25010;DHT22;13026;49.486;10.926;2022-07-23T01:44:57;22.00;94.80
25010;DHT22;13026;49.486;10.926;2022-07-23T01:47:22;22.00;94.80
25010;DHT22;13026;49.486;10.926;2022-07-23T01:49:51;22.00;94.90
25010;DHT22;13026;49.486;10.926;2022-07-23T01:52:35;22.00;94.90
25010;DHT22;13026;49.486;10.926;2022-07-23T01:55:01;22.00;94.70
25010;DHT22;13026;49.486;10.926;2022-07-23T01:57:26;22.00;94.20
25010;DHT22;13026;49.486;10.926;2022-07-23T01:59:52;22.10;94.30
25010;DHT22;13026;49.486;10.926;2022-07-23T02:02:20;22.10;94.40
25010;DHT22;13026;49.486;10.926;2022-07-23T02:04:45;22.00;94.50
25010;DHT22;13026;49.486;10.926;2022-07-23T02:07:11;22.10;94.80
25010;DHT22;13026;49.486;10.926;2022-07-23T02:09:37;22.00;94.50
25010;DHT22;13026;49.486;10.926;2022-07-23T02:12:02;22.00;94.60
25010;DHT22;13026;49.486;10.926;2022-07-23T02:14:28;22.00;94.60
25010;DHT22;13026;49.486;10.926;2022-07-23T02:16:53;22.00;94.70
25010;DHT22;13026;49.486;10.926;2022-07-23T02:19:19;22.00;94.50
25010;DHT22;13026;49.486;10.926;2022-07-23T02:21:46;22.00;94.50
25010;DHT22;13026;49.486;10.926;2022-07-23T02:24:12;22.00;94.40
25010;DHT22;13026;49.486;10.926;2022-07-23T02:26:40;22.00;94.40
25010;DHT22;13026;49.486;10.926;2022-07-23T02:32:35;22.10;94.60
25010;DHT22;13026;49.486;10.926;2022-07-23T02:35:02;22.00;94.80
25010;DHT22;13026;49.486;10.926;2022-07-23T02:37:27;22.00;95.00
25010;DHT22;13026;49.486;10.926;2022-07-23T02:39:53;22.00;95.30
25010;DHT22;13026;49.486;10.926;2022-07-23T02:42:19;22.00;95.50
25010;DHT22;13026;49.486;10.926;2022-07-23T02:44:44;22.00;95.70
25010;DHT22;13026;49.486;10.926;2022-07-23T02:47:10;22.00;95.70
25010;DHT22;13026;49.486;10.926;2022-07-23T02:49:36;22.00;95.90
25010;DHT22;13026;49.486;10.926;2022-07-23T02:52:04;22.00;96.10
25010;DHT22;13026;49.486;10.926;2022-07-23T02:54:30;21.90;96.20
25010;DHT22;13026;49.486;10.926;2022-07-23T02:56:55;21.90;96.40
25010;DHT22;13026;49.486;10.926;2022-07-23T02:59:21;21.90;96.50
25010;DHT22;13026;49.486;10.926;2022-07-23T03:01:47;21.80;96.70
25010;DHT22;13026;49.486;10.926;2022-07-23T03:04:12;21.80;96.90
25010;DHT22;13026;49.486;10.926;2022-07-23T03:06:41;21.80;97.00
25010;DHT22;13026;49.486;10.926;2022-07-23T03:09:06;21.70;97.10
25010;DHT22;13026;49.486;10.926;2022-07-23T03:11:32;21.70;97.10
25010;DHT22;13026;49.486;10.926;2022-07-23T03:13:57;21.70;97.10
25010;DHT22;13026;49.486;10.926;2022-07-23T03:16:23;21.70;97.20
25010;DHT22;13026;49.486;10.926;2022-07-23T03:18:49;21.70;97.30
25010;DHT22;13026;49.486;10.926;2022-07-23T03:21:15;21.70;97.60
25010;DHT22;13026;49.486;10.926;2022-07-23T03:23:40;21.60;97.80
25010;DHT22;13026;49.486;10.926;2022-07-23T03:26:06;21.60;98.10
25010;DHT22;13026;49.486;10.926;2022-07-23T03:28:32;21.50;98.30
25010;DHT22;13026;49.486;10.926;2022-07-23T03:30:57;21.50;98.50
25010;DHT22;13026;49.486;10.926;2022-07-23T03:33:23;21.50;98.70
25010;DHT22;13026;49.486;10.926;2022-07-23T03:35:49;21.40;98.90
25010;DHT22;13026;49.486;10.926;2022-07-23T03:38:24;21.40;99.10
25010;DHT22;13026;49.486;10.926;2022-07-23T03:40:50;21.30;99.40
25010;DHT22;13026;49.486;10.926;2022-07-23T03:43:15;21.20;99.70
25010;DHT22;13026;49.486;10.926;2022-07-23T03:45:41;21.20;99.70
25010;DHT22;13026;49.486;10.926;2022-07-23T03:48:07;21.20;99.70
25010;DHT22;13026;49.486;10.926;2022-07-23T03:50:33;21.20;99.80
25010;DHT22;13026;49.486;10.926;2022-07-23T03:52:58;21.20;99.90
25010;DHT22;13026;49.486;10.926;2022-07-23T03:55:24;21.20;99.90
25010;DHT22;13026;49.486;10.926;2022-07-23T03:57:49;21.20;99.90
25010;DHT22;13026;49.486;10.926;2022-07-23T04:00:16;21.10;99.90
25010;DHT22;13026;49.486;10.926;2022-07-23T04:02:44;21.10;99.90
25010;DHT22;13026;49.486;10.926;2022-07-23T04:05:11;21.10;99.90
25010;DHT22;13026;49.486;10.926;2022-07-23T04:07:38;21.10;99.90
25010;DHT22;13026;49.486;10.926;2022-07-23T04:10:03;21.00;99.90
25010;DHT22;13026;49.486;10.926;2022-07-23T04:12:29;21.10;99.90
25010;DHT22;13026;49.486;10.926;2022-07-23T04:14:55;21.10;99.90
25010;DHT22;13026;49.486;10.926;2022-07-23T04:17:21;21.10;99.90
25010;DHT22;13026;49.486;10.926;2022-07-23T04:19:46;21.10;99.90
25010;DHT22;13026;49.486;10.926;2022-07-23T04:22:16;21.10;99.90
25010;DHT22;13026;49.486;10.926;2022-07-23T04:24:41;21.20;99.90
25010;DHT22;13026;49.486;10.926;2022-07-23T04:27:08;21.20;99.90
25010;DHT22;13026;49.486;10.926;2022-07-23T04:29:33;21.10;99.90
25010;DHT22;13026;49.486;10.926;2022-07-23T04:31:59;21.20;99.90
25010;DHT22;13026;49.486;10.926;2022-07-23T04:34:25;21.20;99.90
25010;DHT22;13026;49.486;10.926;2022-07-23T04:36:50;21.30;99.90
25010;DHT22;13026;49.486;10.926;2022-07-23T04:39:16;21.30;99.90
25010;DHT22;13026;49.486;10.926;2022-07-23T04:41:41;21.30;99.90
25010;DHT22;13026;49.486;10.926;2022-07-23T04:44:07;21.30;99.90
25010;DHT22;13026;49.486;10.926;2022-07-23T04:46:33;21.40;99.90
25010;DHT22;13026;49.486;10.926;2022-07-23T04:48:59;21.50;99.80
25010;DHT22;13026;49.486;10.926;2022-07-23T04:51:26;21.60;99.60
25010;DHT22;13026;49.486;10.926;2022-07-23T04:53:51;21.80;99.70
25010;DHT22;13026;49.486;10.926;2022-07-23T04:56:17;21.80;99.60
25010;DHT22;13026;49.486;10.926;2022-07-23T04:58:42;21.90;99.30
25010;DHT22;13026;49.486;10.926;2022-07-23T05:01:08;21.90;98.90
25010;DHT22;13026;49.486;10.926;2022-07-23T05:03:35;22.00;98.90
25010;DHT22;13026;49.486;10.926;2022-07-23T05:06:00;22.00;99.20
25010;DHT22;13026;49.486;10.926;2022-07-23T05:08:26;22.00;99.30
25010;DHT22;13026;49.486;10.926;2022-07-23T05:10:54;22.10;99.40
25010;DHT22;13026;49.486;10.926;2022-07-23T05:13:21;22.10;99.40
25010;DHT22;13026;49.486;10.926;2022-07-23T05:15:49;22.10;99.10
25010;DHT22;13026;49.486;10.926;2022-07-23T05:18:15;22.10;99.10
25010;DHT22;13026;49.486;10.926;2022-07-23T05:20:41;22.20;99.10
25010;DHT22;13026;49.486;10.926;2022-07-23T05:23:07;22.30;98.60
25010;DHT22;13026;49.486;10.926;2022-07-23T05:25:34;22.30;98.10
25010;DHT22;13026;49.486;10.926;2022-07-23T05:27:59;22.40;98.50
25010;DHT22;13026;49.486;10.926;2022-07-23T05:30:26;22.40;98.50
25010;DHT22;13026;49.486;10.926;2022-07-23T05:32:57;22.60;97.10
25010;DHT22;13026;49.486;10.926;2022-07-23T05:35:22;22.70;96.30
25010;DHT22;13026;49.486;10.926;2022-07-23T05:38:17;22.90;95.20
25010;DHT22;13026;49.486;10.926;2022-07-23T05:40:43;23.10;94.30
25010;DHT22;13026;49.486;10.926;2022-07-23T05:43:09;23.40;93.70
25010;DHT22;13026;49.486;10.926;2022-07-23T05:45:34;23.60;92.20
25010;DHT22;13026;49.486;10.926;2022-07-23T05:48:00;23.70;91.70
25010;DHT22;13026;49.486;10.926;2022-07-23T05:50:34;23.90;91.40
25010;DHT22;13026;49.486;10.926;2022-07-23T05:53:06;23.90;90.90
25010;DHT22;13026;49.486;10.926;2022-07-23T05:55:50;23.90;90.40
25010;DHT22;13026;49.486;10.926;2022-07-23T05:58:16;23.90;90.10
25010;DHT22;13026;49.486;10.926;2022-07-23T06:00:42;23.90;89.20
25010;DHT22;13026;49.486;10.926;2022-07-23T06:03:07;23.90;88.80
25010;DHT22;13026;49.486;10.926;2022-07-23T06:05:33;23.90;88.20
25010;DHT22;13026;49.486;10.926;2022-07-23T06:07:58;23.90;87.80
25010;DHT22;13026;49.486;10.926;2022-07-23T06:10:25;24.00;87.60
25010;DHT22;13026;49.486;10.926;2022-07-23T06:12:51;24.00;87.30
25010;DHT22;13026;49.486;10.926;2022-07-23T06:15:17;24.10;87.20
25010;DHT22;13026;49.486;10.926;2022-07-23T06:17:43;24.20;86.60
25010;DHT22;13026;49.486;10.926;2022-07-23T06:20:10;24.30;86.60
25010;DHT22;13026;49.486;10.926;2022-07-23T06:22:37;24.30;85.00
25010;DHT22;13026;49.486;10.926;2022-07-23T06:25:04;24.40;84.30
25010;DHT22;13026;49.486;10.926;2022-07-23T06:27:30;24.50;84.40
25010;DHT22;13026;49.486;10.926;2022-07-23T06:29:55;24.50;83.50
25010;DHT22;13026;49.486;10.926;2022-07-23T06:32:21;24.60;83.70
25010;DHT22;13026;49.486;10.926;2022-07-23T06:34:46;24.70;83.00
25010;DHT22;13026;49.486;10.926;2022-07-23T06:37:12;24.80;82.50
25010;DHT22;13026;49.486;10.926;2022-07-23T06:39:38;24.90;82.20
25010;DHT22;13026;49.486;10.926;2022-07-23T06:42:03;25.10;81.50
25010;DHT22;13026;49.486;10.926;2022-07-23T06:44:38;25.20;81.40
25010;DHT22;13026;49.486;10.926;2022-07-23T06:47:06;25.30;80.30
25010;DHT22;13026;49.486;10.926;2022-07-23T06:49:31;25.40;79.60
25010;DHT22;13026;49.486;10.926;2022-07-23T06:51:57;25.50;78.80
25010;DHT22;13026;49.486;10.926;2022-07-23T06:54:23;25.60;78.70
25010;DHT22;13026;49.486;10.926;2022-07-23T06:56:48;25.70;78.20
25010;DHT22;13026;49.486;10.926;2022-07-23T06:59:14;25.70;77.70
25010;DHT22;13026;49.486;10.926;2022-07-23T07:01:39;25.70;77.90
25010;DHT22;13026;49.486;10.926;2022-07-23T07:04:05;25.70;77.90
25010;DHT22;13026;49.486;10.926;2022-07-23T07:06:30;25.80;77.50
25010;DHT22;13026;49.486;10.926;2022-07-23T07:08:56;25.80;77.20
25010;DHT22;13026;49.486;10.926;2022-07-23T07:11:21;25.90;76.80
25010;DHT22;13026;49.486;10.926;2022-07-23T07:13:47;26.00;76.50
25010;DHT22;13026;49.486;10.926;2022-07-23T07:16:12;26.00;76.50
25010;DHT22;13026;49.486;10.926;2022-07-23T07:18:38;26.10;76.10
25010;DHT22;13026;49.486;10.926;2022-07-23T07:21:04;26.00;75.40
25010;DHT22;13026;49.486;10.926;2022-07-23T07:23:29;25.90;75.40
25010;DHT22;13026;49.486;10.926;2022-07-23T07:25:56;25.80;75.40
25010;DHT22;13026;49.486;10.926;2022-07-23T07:28:22;25.80;76.40
25010;DHT22;13026;49.486;10.926;2022-07-23T07:30:48;25.70;75.90
25010;DHT22;13026;49.486;10.926;2022-07-23T07:33:13;25.70;76.20
25010;DHT22;13026;49.486;10.926;2022-07-23T07:35:39;25.60;76.70
25010;DHT22;13026;49.486;10.926;2022-07-23T07:38:04;25.50;77.00
25010;DHT22;13026;49.486;10.926;2022-07-23T07:40:30;25.30;77.00
25010;DHT22;13026;49.486;10.926;2022-07-23T07:42:56;25.20;77.20
25010;DHT22;13026;49.486;10.926;2022-07-23T07:45:24;25.10;77.80
25010;DHT22;13026;49.486;10.926;2022-07-23T07:47:51;25.00;78.80
25010;DHT22;13026;49.486;10.926;2022-07-23T07:50:17;24.90;79.60
25010;DHT22;13026;49.486;10.926;2022-07-23T07:52:42;24.70;81.50
25010;DHT22;13026;49.486;10.926;2022-07-23T07:55:09;24.40;83.50
25010;DHT22;13026;49.486;10.926;2022-07-23T07:57:35;24.20;84.90
25010;DHT22;13026;49.486;10.926;2022-07-23T08:00:01;24.10;86.20
25010;DHT22;13026;49.486;10.926;2022-07-23T08:02:26;24.10;85.80
25010;DHT22;13026;49.486;10.926;2022-07-23T08:04:52;24.20;86.10
25010;DHT22;13026;49.486;10.926;2022-07-23T08:07:19;24.30;85.50
25010;DHT22;13026;49.486;10.926;2022-07-23T08:09:44;24.40;84.00
25010;DHT22;13026;49.486;10.926;2022-07-23T08:12:10;24.70;82.70
25010;DHT22;13026;49.486;10.926;2022-07-23T08:14:35;24.80;81.80
25010;DHT22;13026;49.486;10.926;2022-07-23T08:17:01;24.80;80.90
25010;DHT22;13026;49.486;10.926;2022-07-23T08:19:26;24.80;80.10
25010;DHT22;13026;49.486;10.926;2022-07-23T08:21:52;24.80;80.20
25010;DHT22;13026;49.486;10.926;2022-07-23T08:24:17;24.70;80.30
25010;DHT22;13026;49.486;10.926;2022-07-23T08:26:43;24.70;80.80
25010;DHT22;13026;49.486;10.926;2022-07-23T08:29:09;24.50;82.10
25010;DHT22;13026;49.486;10.926;2022-07-23T08:31:35;23.90;89.80
25010;DHT22;13026;49.486;10.926;2022-07-23T08:34:01;22.80;92.40
25010;DHT22;13026;49.486;10.926;2022-07-23T08:36:28;22.10;94.90
25010;DHT22;13026;49.486;10.926;2022-07-23T08:38:54;21.80;96.20
25010;DHT22;13026;49.486;10.926;2022-07-23T08:41:20;21.70;96.90
25010;DHT22;13026;49.486;10.926;2022-07-23T08:43:46;21.70;97.70
25010;DHT22;13026;49.486;10.926;2022-07-23T08:46:13;21.80;98.70
25010;DHT22;13026;49.486;10.926;2022-07-23T08:48:39;22.00;99.90
25010;DHT22;13026;49.486;10.926;2022-07-23T08:51:05;22.10;99.90
25010;DHT22;13026;49.486;10.926;2022-07-23T08:53:32;22.30;99.90
25010;DHT22;13026;49.486;10.926;2022-07-23T08:56:02;22.40;99.90
25010;DHT22;13026;49.486;10.926;2022-07-23T08:58:27;22.60;99.90
25010;DHT22;13026;49.486;10.926;2022-07-23T09:00:53;22.80;99.90
25010;DHT22;13026;49.486;10.926;2022-07-23T09:03:21;23.00;99.90
25010;DHT22;13026;49.486;10.926;2022-07-23T09:05:49;23.20;99.90
25010;DHT22;13026;49.486;10.926;2022-07-23T09:08:17;23.30;99.70
25010;DHT22;13026;49.486;10.926;2022-07-23T09:13:36;23.60;97.00
25010;DHT22;13026;49.486;10.926;2022-07-23T09:18:52;23.80;95.50
25010;DHT22;13026;49.486;10.926;2022-07-23T09:23:49;24.10;94.70
25010;DHT22;13026;49.486;10.926;2022-07-23T09:28:51;24.00;94.40
25010;DHT22;13026;49.486;10.926;2022-07-23T09:31:17;23.90;94.00
25010;DHT22;13026;49.486;10.926;2022-07-23T09:33:43;23.70;94.40
25010;DHT22;13026;49.486;10.926;2022-07-23T09:36:08;23.70;94.80
25010;DHT22;13026;49.486;10.926;2022-07-23T09:38:34;23.60;95.70
25010;DHT22;13026;49.486;10.926;2022-07-23T09:41:10;23.50;95.70
25010;DHT22;13026;49.486;10.926;2022-07-23T09:43:37;23.40;97.00
25010;DHT22;13026;49.486;10.926;2022-07-23T09:46:22;23.40;97.40
25010;DHT22;13026;49.486;10.926;2022-07-23T09:48:48;23.40;98.10
25010;DHT22;13026;49.486;10.926;2022-07-23T09:51:14;23.30;98.70
25010;DHT22;13026;49.486;10.926;2022-07-23T09:53:39;23.30;99.30
25010;DHT22;13026;49.486;10.926;2022-07-23T09:56:06;23.30;99.90
25010;DHT22;13026;49.486;10.926;2022-07-23T09:58:34;23.20;99.90
25010;DHT22;13026;49.486;10.926;2022-07-23T10:01:01;23.10;99.90
25010;DHT22;13026;49.486;10.926;2022-07-23T10:03:27;23.10;99.90
25010;DHT22;13026;49.486;10.926;2022-07-23T10:06:18;23.10;99.90
25010;DHT22;13026;49.486;10.926;2022-07-23T10:09:02;23.10;99.90
25010;DHT22;13026;49.486;10.926;2022-07-23T10:11:48;22.90;99.90
25010;DHT22;13026;49.486;10.926;2022-07-23T10:14:34;22.90;99.90
25010;DHT22;13026;49.486;10.926;2022-07-23T10:17:03;22.80;99.90
25010;DHT22;13026;49.486;10.926;2022-07-23T10:19:30;22.70;99.90
25010;DHT22;13026;49.486;10.926;2022-07-23T10:22:02;22.70;99.90
25010;DHT22;13026;49.486;10.926;2022-07-23T10:27:50;22.80;99.90
25010;DHT22;13026;49.486;10.926;2022-07-23T10:36:19;23.20;99.90
25010;DHT22;13026;49.486;10.926;2022-07-23T10:39:03;23.30;99.90
25010;DHT22;13026;49.486;10.926;2022-07-23T10:41:33;23.30;99.90
25010;DHT22;13026;49.486;10.926;2022-07-23T10:44:13;23.30;99.90
25010;DHT22;13026;49.486;10.926;2022-07-23T10:47:01;23.30;99.90
25010;DHT22;13026;49.486;10.926;2022-07-23T10:49:29;23.20;99.90
25010;DHT22;13026;49.486;10.926;2022-07-23T10:54:49;23.20;99.90
25010;DHT22;13026;49.486;10.926;2022-07-23T10:57:16;23.20;99.90
25010;DHT22;13026;49.486;10.926;2022-07-23T11:02:28;23.40;99.90
25010;DHT22;13026;49.486;10.926;2022-07-23T11:04:58;23.50;99.90
25010;DHT22;13026;49.486;10.926;2022-07-23T11:07:24;23.60;99.90
25010;DHT22;13026;49.486;10.926;2022-07-23T11:09:49;23.70;99.90
25010;DHT22;13026;49.486;10.926;2022-07-23T11:17:27;24.10;99.90
25010;DHT22;13026;49.486;10.926;2022-07-23T11:20:12;24.20;99.90
25010;DHT22;13026;49.486;10.926;2022-07-23T11:25:11;24.60;99.90
25010;DHT22;13026;49.486;10.926;2022-07-23T11:27:46;24.60;99.70
25010;DHT22;13026;49.486;10.926;2022-07-23T11:30:37;24.70;99.70
25010;DHT22;13026;49.486;10.926;2022-07-23T11:35:41;24.70;99.80
25010;DHT22;13026;49.486;10.926;2022-07-23T11:38:16;24.70;99.60
25010;DHT22;13026;49.486;10.926;2022-07-23T11:40:45;24.70;99.50
25010;DHT22;13026;49.486;10.926;2022-07-23T11:43:11;24.90;99.50
25010;DHT22;13026;49.486;10.926;2022-07-23T11:45:38;25.00;99.60
25010;DHT22;13026;49.486;10.926;2022-07-23T11:48:07;25.10;99.10
25010;DHT22;13026;49.486;10.926;2022-07-23T11:50:33;25.30;98.60
25010;DHT22;13026;49.486;10.926;2022-07-23T11:52:59;25.60;97.90
25010;DHT22;13026;49.486;10.926;2022-07-23T11:55:25;25.80;98.10
25010;DHT22;13026;49.486;10.926;2022-07-23T11:57:52;26.10;97.00
25010;DHT22;13026;49.486;10.926;2022-07-23T12:00:20;26.00;97.10
25010;DHT22;13026;49.486;10.926;2022-07-23T12:02:49;26.00;96.80
25010;DHT22;13026;49.486;10.926;2022-07-23T12:05:19;25.90;97.00
25010;DHT22;13026;49.486;10.926;2022-07-23T12:07:47;25.90;97.50
25010;DHT22;13026;49.486;10.926;2022-07-23T12:10:22;26.00;97.80
25010;DHT22;13026;49.486;10.926;2022-07-23T12:12:51;26.20;97.10
25010;DHT22;13026;49.486;10.926;2022-07-23T12:15:20;26.50;96.00
25010;DHT22;13026;49.486;10.926;2022-07-23T12:17:47;26.60;95.20
25010;DHT22;13026;49.486;10.926;2022-07-23T12:20:25;26.70;94.00
25010;DHT22;13026;49.486;10.926;2022-07-23T12:22:56;26.80;93.70
25010;DHT22;13026;49.486;10.926;2022-07-23T12:25:25;26.90;94.40
25010;DHT22;13026;49.486;10.926;2022-07-23T12:28:11;27.20;94.00
25010;DHT22;13026;49.486;10.926;2022-07-23T12:30:50;27.50;92.40
25010;DHT22;13026;49.486;10.926;2022-07-23T12:33:25;27.70;90.50
25010;DHT22;13026;49.486;10.926;2022-07-23T12:36:03;27.80;90.40
25010;DHT22;13026;49.486;10.926;2022-07-23T12:38:54;28.00;90.30
25010;DHT22;13026;49.486;10.926;2022-07-23T12:41:20;28.30;87.20
25010;DHT22;13026;49.486;10.926;2022-07-23T12:43:46;28.70;84.30
25010;DHT22;13026;49.486;10.926;2022-07-23T12:46:19;28.70;83.20
25010;DHT22;13026;49.486;10.926;2022-07-23T12:51:21;29.20;85.20
25010;DHT22;13026;49.486;10.926;2022-07-23T12:53:51;29.50;82.60
25010;DHT22;13026;49.486;10.926;2022-07-23T12:56:22;29.90;79.00
25010;DHT22;13026;49.486;10.926;2022-07-23T13:01:31;30.10;76.50
25010;DHT22;13026;49.486;10.926;2022-07-23T13:04:18;30.40;74.70
25010;DHT22;13026;49.486;10.926;2022-07-23T13:06:55;30.70;72.70
25010;DHT22;13026;49.486;10.926;2022-07-23T13:09:28;30.90;71.40
25010;DHT22;13026;49.486;10.926;2022-07-23T13:11:56;31.00;73.00
25010;DHT22;13026;49.486;10.926;2022-07-23T13:14:22;31.20;72.30
25010;DHT22;13026;49.486;10.926;2022-07-23T13:16:49;31.30;72.50
25010;DHT22;13026;49.486;10.926;2022-07-23T13:19:15;31.60;68.50
25010;DHT22;13026;49.486;10.926;2022-07-23T13:21:41;31.80;65.70
25010;DHT22;13026;49.486;10.926;2022-07-23T13:24:08;31.80;64.80
25010;DHT22;13026;49.486;10.926;2022-07-23T13:26:34;31.80;62.50
25010;DHT22;13026;49.486;10.926;2022-07-23T13:28:59;31.80;63.50
25010;DHT22;13026;49.486;10.926;2022-07-23T13:31:25;31.80;62.50
25010;DHT22;13026;49.486;10.926;2022-07-23T13:33:51;31.80;61.60
25010;DHT22;13026;49.486;10.926;2022-07-23T13:36:16;31.90;62.10
25010;DHT22;13026;49.486;10.926;2022-07-23T13:38:42;31.80;61.90
25010;DHT22;13026;49.486;10.926;2022-07-23T13:41:07;31.40;63.00
25010;DHT22;13026;49.486;10.926;2022-07-23T13:43:33;31.10;63.90
25010;DHT22;13026;49.486;10.926;2022-07-23T13:45:59;30.90;64.60
25010;DHT22;13026;49.486;10.926;2022-07-23T13:48:25;30.80;65.40
25010;DHT22;13026;49.486;10.926;2022-07-23T13:50:51;30.60;64.60
25010;DHT22;13026;49.486;10.926;2022-07-23T13:53:19;30.50;64.30
25010;DHT22;13026;49.486;10.926;2022-07-23T13:55:45;30.50;65.00
25010;DHT22;13026;49.486;10.926;2022-07-23T13:58:12;30.50;64.00
25010;DHT22;13026;49.486;10.926;2022-07-23T14:00:41;30.60;64.30
25010;DHT22;13026;49.486;10.926;2022-07-23T14:03:07;30.70;65.60
25010;DHT22;13026;49.486;10.926;2022-07-23T14:05:33;31.00;64.90
25010;DHT22;13026;49.486;10.926;2022-07-23T14:07:58;31.30;63.00
25010;DHT22;13026;49.486;10.926;2022-07-23T14:10:24;31.60;61.60
25010;DHT22;13026;49.486;10.926;2022-07-23T14:12:51;31.60;60.80
25010;DHT22;13026;49.486;10.926;2022-07-23T14:15:18;31.50;60.50
25010;DHT22;13026;49.486;10.926;2022-07-23T14:17:45;31.30;61.40
25010;DHT22;13026;49.486;10.926;2022-07-23T14:20:12;30.90;60.30
25010;DHT22;13026;49.486;10.926;2022-07-23T14:22:38;30.90;61.80
25010;DHT22;13026;49.486;10.926;2022-07-23T14:25:05;31.00;57.60
25010;DHT22;13026;49.486;10.926;2022-07-23T14:27:31;31.10;55.70
25010;DHT22;13026;49.486;10.926;2022-07-23T14:29:57;31.30;53.90
25010;DHT22;13026;49.486;10.926;2022-07-23T14:32:23;31.50;52.90
25010;DHT22;13026;49.486;10.926;2022-07-23T14:34:48;31.50;52.90
25010;DHT22;13026;49.486;10.926;2022-07-23T14:37:14;31.40;52.00
25010;DHT22;13026;49.486;10.926;2022-07-23T14:39:41;31.40;51.70
25010;DHT22;13026;49.486;10.926;2022-07-23T14:42:07;31.40;51.50
25010;DHT22;13026;49.486;10.926;2022-07-23T14:44:33;31.50;51.30
25010;DHT22;13026;49.486;10.926;2022-07-23T14:46:59;31.80;50.90
25010;DHT22;13026;49.486;10.926;2022-07-23T14:49:25;32.00;50.20
25010;DHT22;13026;49.486;10.926;2022-07-23T14:51:51;32.10;49.80
25010;DHT22;13026;49.486;10.926;2022-07-23T14:54:17;32.00;49.20
25010;DHT22;13026;49.486;10.926;2022-07-23T14:56:43;31.90;49.20
25010;DHT22;13026;49.486;10.926;2022-07-23T14:59:08;32.00;49.40
25010;DHT22;13026;49.486;10.926;2022-07-23T15:01:34;32.20;48.70
25010;DHT22;13026;49.486;10.926;2022-07-23T15:04:00;32.20;49.10
25010;DHT22;13026;49.486;10.926;2022-07-23T15:06:26;32.10;49.50
25010;DHT22;13026;49.486;10.926;2022-07-23T15:08:51;31.90;49.20
25010;DHT22;13026;49.486;10.926;2022-07-23T15:11:17;32.00;49.30
25010;DHT22;13026;49.486;10.926;2022-07-23T15:13:43;32.20;49.20
25010;DHT22;13026;49.486;10.926;2022-07-23T15:16:08;32.20;48.20
25010;DHT22;13026;49.486;10.926;2022-07-23T15:18:34;31.80;48.10
25010;DHT22;13026;49.486;10.926;2022-07-23T15:21:00;31.50;48.50
25010;DHT22;13026;49.486;10.926;2022-07-23T15:23:25;31.50;48.90
25010;DHT22;13026;49.486;10.926;2022-07-23T15:25:51;31.60;47.80
25010;DHT22;13026;49.486;10.926;2022-07-23T15:28:17;31.50;46.80
25010;DHT22;13026;49.486;10.926;2022-07-23T15:30:42;31.20;47.20
25010;DHT22;13026;49.486;10.926;2022-07-23T15:33:09;31.20;47.70
25010;DHT22;13026;49.486;10.926;2022-07-23T15:35:35;31.60;46.80
25010;DHT22;13026;49.486;10.926;2022-07-23T15:38:00;32.30;45.10
25010;DHT22;13026;49.486;10.926;2022-07-23T15:40:26;33.50;43.40
25010;DHT22;13026;49.486;10.926;2022-07-23T15:42:51;34.80;41.40
25010;DHT22;13026;49.486;10.926;2022-07-23T15:45:17;34.50;41.30
25010;DHT22;13026;49.486;10.926;2022-07-23T15:47:42;33.30;43.30
25010;DHT22;13026;49.486;10.926;2022-07-23T15:50:09;32.40;45.40
25010;DHT22;13026;49.486;10.926;2022-07-23T15:52:35;32.00;46.40
25010;DHT22;13026;49.486;10.926;2022-07-23T15:55:01;32.10;46.80
25010;DHT22;13026;49.486;10.926;2022-07-23T15:57:27;31.60;48.10
25010;DHT22;13026;49.486;10.926;2022-07-23T15:59:52;31.20;49.50